Strona główna
METAR-TAF:

METAR-TAF

Lotnisko :

Port lotniczy Brest

Brest, Francja

Szerokość geograficzna: 48-27N, Długość geograficzna: 004-25W, wysokość: 99 m

Aktualna obserwacja pogody

Raport powstał 23 minut temu, godzina 05:30 UTC
Wiatr 4 kt od północny wschód
Temperatura 13°C
Wilgotność 82%
Ciśnienie 1018 hPa
Widzialność 10 km lub więcej
Brak chmur poniżej 1500 m i brak chmur cumulonimbus

METAR: LFRB 010530Z AUTO 04004KT CAVOK 13/10 Q1018 NOSIG

czas: 07:53 (05:53 UTC)

Prognoza

Raport powstał 53 minut temu, godzina 05:00 UTC
Prognoza ważna od 01 godzina 06 UTC do 02 godzina 12 UTC
Wiatr 6 kt od północny wschód
Widzialność 10 km lub więcej
Brak chmur poniżej 1500 m i brak chmur cumulonimbus
Stopniowe zmiany
od 01 godzina 11 UTC do 01 godzina 13 UTC
Wiatr 15 kt od północny wschód w porywach dochodzący do 25 kt
Stopniowe zmiany
od 01 godzina 17 UTC do 01 godzina 19 UTC
Wiatr 7 kt od północny wschód

TAF: LFRB 010500Z 0106/0212 05006KT CAVOK BECMG 0111/0113 05015G25KT BECMG 0117/0119 04007KT

Obserwacja i prognoza pogody dla ponad 4000 lotnisk (raport METAR i TAF).

Dostępne stacje oznaczono żółtymi i czerwonymi punktami na mapie.

Najedź kursorem aby zobaczyć nazwę stacji.

Kliknij aby zobaczyć obserwacje i prognozy pogody.

Aby zmienić mapę: kliknij na zielony przycisk z czarnym krzyżykiem, aby powiększyć; na zielony przycisk z myślnikiem, aby pomniejszyć; na zielone strzałki, aby przejść do map sąsiednich.


METAR-TAF: